Terminal Aerodrome Forecast
Issued by NWS

Home | Current Version | Previous Version | Graphics & Text | Print | Product List | Glossary On
Versions: 1 2 3 4 5 6 7 8 9 10 11 12 13 14 15 16 17 18 19 20
000
FTUS42 KMHX 231959 AAA
TAFPGV
TAF AMD
KPGV 231959Z 2320/2418 02005KT P6SM SCT025
     FM240100 VRB03KT P6SM SCT120
     FM240600 00000KT 3SM BR SCT008
     FM240900 00000KT 1SM BR BKN008
     FM241300 VRB04KT 3SM BR SCT250
     FM241500 36005KT P6SM FEW250
      AMD LTD TO CLD VIS AND WIND=

USA.gov is the U.S. government's official web portal to all federal, state and local government web resources and services.